createdAt,value
2018-03-14T00:01:09.856Z,99.90
2018-03-14T00:03:37.458Z,99.90
2018-03-14T00:06:05.789Z,99.90
2018-03-14T00:08:33.369Z,99.90
2018-03-14T00:11:00.987Z,99.90
2018-03-14T00:13:28.556Z,99.90
2018-03-14T00:15:56.156Z,99.90
2018-03-14T00:18:23.768Z,99.90
2018-03-14T00:20:51.365Z,99.90
2018-03-14T00:23:18.952Z,99.90
2018-03-14T00:25:47.291Z,99.90
2018-03-14T00:28:14.861Z,99.90
2018-03-14T00:30:42.514Z,99.90
2018-03-14T00:33:10.101Z,99.90
2018-03-14T00:35:37.664Z,99.90
2018-03-14T00:38:05.224Z,99.90
2018-03-14T00:40:32.803Z,99.90
2018-03-14T00:43:01.152Z,99.90
2018-03-14T00:45:28.733Z,99.90
2018-03-14T00:47:57.197Z,99.90
2018-03-14T00:50:24.771Z,99.90
2018-03-14T00:52:53.273Z,99.90
2018-03-14T00:55:21.642Z,99.90
2018-03-14T00:57:49.960Z,99.90
2018-03-14T01:00:17.558Z,99.90
2018-03-14T01:02:45.260Z,99.90
2018-03-14T01:05:12.833Z,99.90
2018-03-14T01:07:40.413Z,99.90
2018-03-14T01:10:08.047Z,99.90
2018-03-14T01:12:35.687Z,99.90
2018-03-14T01:15:03.213Z,99.90
2018-03-14T01:17:30.782Z,99.90
2018-03-14T01:19:58.410Z,99.90
2018-03-14T01:22:25.979Z,99.90
2018-03-14T01:24:53.545Z,99.90
2018-03-14T01:27:21.108Z,99.90
2018-03-14T01:29:48.669Z,99.90
2018-03-14T01:32:16.244Z,99.90
2018-03-14T01:34:43.809Z,99.90
2018-03-14T01:37:11.404Z,99.90
2018-03-14T01:39:38.997Z,99.90
2018-03-14T01:42:06.565Z,99.90
2018-03-14T01:44:34.127Z,99.90
2018-03-14T01:47:01.753Z,99.90
2018-03-14T01:49:30.111Z,99.90
2018-03-14T01:51:57.735Z,99.90
2018-03-14T01:54:25.280Z,99.90
2018-03-14T01:56:52.862Z,99.90
2018-03-14T01:59:20.496Z,99.90
2018-03-14T02:01:48.077Z,99.90
2018-03-14T02:04:15.620Z,99.90
2018-03-14T02:06:43.166Z,99.90
2018-03-14T02:09:10.738Z,99.90
2018-03-14T02:11:38.305Z,99.90
2018-03-14T02:14:05.883Z,99.90
2018-03-14T02:16:33.506Z,99.90
2018-03-14T02:19:01.088Z,99.90
2018-03-14T02:21:28.681Z,99.90
2018-03-14T02:23:57.083Z,99.90
2018-03-14T02:26:24.641Z,99.90
2018-03-14T02:28:52.221Z,99.90
2018-03-14T02:31:19.998Z,99.90
2018-03-14T02:33:47.574Z,99.90
2018-03-14T02:36:26.965Z,99.90
2018-03-14T02:38:54.534Z,99.90
2018-03-14T02:41:22.085Z,99.90
2018-03-14T02:43:49.846Z,99.90
2018-03-14T02:46:17.411Z,99.90
2018-03-14T02:48:45.733Z,99.90
2018-03-14T02:51:13.286Z,99.90
2018-03-14T02:53:40.848Z,99.90
2018-03-14T02:56:08.397Z,99.90
2018-03-14T02:58:35.980Z,99.90
2018-03-14T03:01:03.647Z,99.90
2018-03-14T03:03:32.703Z,99.90
2018-03-14T03:06:00.281Z,99.90
2018-03-14T03:08:27.840Z,99.90
2018-03-14T03:10:55.412Z,99.90
2018-03-14T03:13:22.953Z,99.90
2018-03-14T03:15:50.602Z,99.90
2018-03-14T03:18:18.147Z,99.90
2018-03-14T03:20:45.713Z,99.90
2018-03-14T03:23:13.258Z,99.90
2018-03-14T03:25:41.638Z,99.90
2018-03-14T03:28:09.994Z,99.90
2018-03-14T03:30:37.569Z,99.90
2018-03-14T03:33:05.880Z,99.90
2018-03-14T03:35:33.457Z,99.90
2018-03-14T03:38:01.013Z,99.90
2018-03-14T03:40:28.582Z,99.90
2018-03-14T03:42:56.166Z,99.90
2018-03-14T03:45:23.709Z,99.90
2018-03-14T03:47:51.448Z,99.90
2018-03-14T03:50:18.999Z,99.90
2018-03-14T03:52:46.624Z,99.90
2018-03-14T03:55:14.177Z,99.90
2018-03-14T03:57:41.747Z,99.90
2018-03-14T04:00:09.289Z,99.90
2018-03-14T04:02:36.851Z,99.90
2018-03-14T04:05:04.393Z,99.90
2018-03-14T04:07:31.974Z,99.90
2018-03-14T04:09:59.634Z,99.90
2018-03-14T04:12:27.208Z,99.90
2018-03-14T04:14:55.524Z,99.90
2018-03-14T04:17:23.109Z,99.90
2018-03-14T04:19:50.690Z,99.90
2018-03-14T04:22:18.306Z,99.90
2018-03-14T04:24:45.889Z,99.90
2018-03-14T04:27:13.453Z,99.90
2018-03-14T04:29:41.026Z,99.90
2018-03-14T04:32:08.569Z,99.90
2018-03-14T04:34:36.204Z,99.90
2018-03-14T04:37:03.757Z,99.90
2018-03-14T04:39:31.325Z,99.90
2018-03-14T04:41:58.878Z,99.90
2018-03-14T04:44:26.489Z,99.90
2018-03-14T04:46:54.028Z,99.90
2018-03-14T04:49:21.593Z,99.90
2018-03-14T04:51:49.152Z,99.90
2018-03-14T04:54:16.718Z,99.90
2018-03-14T04:56:44.251Z,99.90
2018-03-14T04:59:11.800Z,99.90
2018-03-14T05:01:39.352Z,99.90
2018-03-14T05:04:06.968Z,99.90
2018-03-14T05:06:34.536Z,99.90
2018-03-14T05:09:02.091Z,99.90
2018-03-14T05:11:29.631Z,99.90
2018-03-14T05:13:57.276Z,99.90
2018-03-14T05:16:24.841Z,99.90
2018-03-14T05:18:52.392Z,99.90
2018-03-14T05:21:20.003Z,99.90
2018-03-14T05:23:47.554Z,99.90
2018-03-14T05:26:15.123Z,99.90
2018-03-14T05:28:43.413Z,99.90
2018-03-14T05:31:10.958Z,99.90
2018-03-14T05:33:39.321Z,99.90
2018-03-14T05:36:06.857Z,99.90
2018-03-14T05:38:34.394Z,99.90
2018-03-14T05:41:01.942Z,99.90
2018-03-14T05:43:29.470Z,99.90
2018-03-14T05:45:57.036Z,99.90
2018-03-14T05:48:25.452Z,99.90
2018-03-14T05:50:52.960Z,99.90
2018-03-14T05:53:20.521Z,99.90
2018-03-14T05:55:48.078Z,99.90
2018-03-14T05:58:15.637Z,99.90
2018-03-14T06:00:43.196Z,99.90
2018-03-14T06:03:10.767Z,99.90
2018-03-14T06:05:38.312Z,99.90
2018-03-14T06:08:05.882Z,99.90
2018-03-14T06:10:33.454Z,99.90
2018-03-14T06:13:01.003Z,99.90
2018-03-14T06:15:28.648Z,99.90
2018-03-14T06:17:56.225Z,99.90
2018-03-14T06:20:23.826Z,99.90
2018-03-14T06:22:51.390Z,99.90
2018-03-14T06:25:18.964Z,99.90
2018-03-14T06:27:46.550Z,99.90
2018-03-14T06:30:14.169Z,99.90
2018-03-14T06:32:41.766Z,99.90
2018-03-14T06:35:09.370Z,99.90
2018-03-14T06:37:37.740Z,99.90
2018-03-14T06:40:06.081Z,99.90
2018-03-14T06:42:33.634Z,99.90
2018-03-14T06:45:01.210Z,99.90
2018-03-14T06:47:28.769Z,99.90
2018-03-14T06:49:56.532Z,99.90
2018-03-14T06:52:24.945Z,99.90
2018-03-14T06:54:52.516Z,99.90
2018-03-14T06:57:20.849Z,99.90
2018-03-14T07:00:00.219Z,99.90
2018-03-14T07:05:38.903Z,99.90
2018-03-14T07:08:06.649Z,99.90
2018-03-14T07:10:35.046Z,99.90
2018-03-14T07:13:02.648Z,99.90
2018-03-14T07:15:30.673Z,99.90
2018-03-14T07:17:58.369Z,99.90
2018-03-14T07:20:26.411Z,99.90
2018-03-14T07:22:54.332Z,99.90
2018-03-14T07:25:23.039Z,99.90
2018-03-14T07:27:51.015Z,99.90
2018-03-14T07:30:19.357Z,99.90
2018-03-14T07:32:47.156Z,99.90
2018-03-14T07:35:15.148Z,99.90
2018-03-14T07:37:43.115Z,99.90
2018-03-14T07:40:10.750Z,99.90
2018-03-14T07:42:39.375Z,99.90
2018-03-14T07:45:07.042Z,99.90
2018-03-14T07:47:34.841Z,99.90
2018-03-14T07:50:02.456Z,99.90
2018-03-14T07:52:30.270Z,99.90
2018-03-14T07:54:58.807Z,99.90
2018-03-14T07:57:26.626Z,99.90
2018-03-14T07:59:55.222Z,99.90
2018-03-14T08:02:22.830Z,99.90
2018-03-14T08:04:50.624Z,99.90
2018-03-14T08:07:18.481Z,99.90
2018-03-14T08:09:46.961Z,99.90
2018-03-14T08:12:14.996Z,99.90
2018-03-14T08:14:42.592Z,99.90
2018-03-14T08:17:10.178Z,99.90
2018-03-14T08:19:38.518Z,99.90
2018-03-14T08:22:06.069Z,99.90
2018-03-14T08:24:33.641Z,99.90
2018-03-14T08:27:01.230Z,99.90
2018-03-14T08:29:28.888Z,99.90
2018-03-14T08:31:56.426Z,99.30
2018-03-14T08:34:24.104Z,99.90
2018-03-14T08:36:51.955Z,98.70
2018-03-14T08:39:20.076Z,98.90
2018-03-14T08:41:47.854Z,99.50
2018-03-14T08:44:15.678Z,99.40
2018-03-14T08:46:44.055Z,99.50
2018-03-14T08:49:11.702Z,99.60
2018-03-14T08:51:39.557Z,99.90
2018-03-14T08:54:07.548Z,98.30
2018-03-14T08:56:36.187Z,97.90
2018-03-14T08:59:03.783Z,97.90
2018-03-14T09:01:31.482Z,97.00
2018-03-14T09:03:59.945Z,97.50
2018-03-14T09:06:27.970Z,97.50
2018-03-14T09:08:55.593Z,96.10
2018-03-14T09:11:24.314Z,96.50
2018-03-14T09:13:52.037Z,96.50
2018-03-14T09:16:20.484Z,97.20
2018-03-14T09:18:48.207Z,97.00
2018-03-14T09:21:15.957Z,96.50
2018-03-14T09:23:44.598Z,96.00
2018-03-14T09:26:12.748Z,96.00
2018-03-14T09:28:40.392Z,96.40
2018-03-14T09:31:08.214Z,96.40
2018-03-14T09:33:35.864Z,96.70
2018-03-14T09:36:03.524Z,95.70
2018-03-14T09:38:31.121Z,95.80
2018-03-14T09:40:58.790Z,96.70
2018-03-14T09:43:27.257Z,96.80
2018-03-14T09:45:54.813Z,96.80
2018-03-14T09:48:23.173Z,95.50
2018-03-14T09:50:50.785Z,95.50
2018-03-14T09:53:19.112Z,94.50
2018-03-14T09:55:46.718Z,94.50
2018-03-14T09:58:15.073Z,94.60
2018-03-14T10:00:42.759Z,94.60
2018-03-14T10:03:10.345Z,94.20
2018-03-14T10:05:38.009Z,94.00
2018-03-14T10:08:05.582Z,93.90
2018-03-14T10:10:33.201Z,93.70
2018-03-14T10:13:01.562Z,93.60
2018-03-14T10:15:29.121Z,93.60
2018-03-14T10:17:56.693Z,93.60
2018-03-14T10:20:25.045Z,93.20
2018-03-14T10:22:54.115Z,92.80
2018-03-14T10:25:21.693Z,92.80
2018-03-14T10:27:49.237Z,91.90
2018-03-14T10:30:16.817Z,92.40
2018-03-14T10:32:44.504Z,92.60
2018-03-14T10:35:12.126Z,92.60
2018-03-14T10:37:39.701Z,91.00
2018-03-14T10:40:07.275Z,92.10
2018-03-14T10:42:34.847Z,92.60
2018-03-14T10:45:03.185Z,92.30
2018-03-14T10:47:30.726Z,92.30
2018-03-14T10:49:58.312Z,92.10
2018-03-14T10:52:25.923Z,91.70
2018-03-14T10:54:54.384Z,89.90
2018-03-14T10:57:23.038Z,90.00
2018-03-14T10:59:51.083Z,90.00
2018-03-14T11:02:30.546Z,90.30
2018-03-14T11:04:58.495Z,89.70
2018-03-14T11:07:26.389Z,90.40
2018-03-14T11:09:54.030Z,89.90
2018-03-14T11:12:21.989Z,89.50
2018-03-14T11:14:49.594Z,88.80
2018-03-14T11:17:18.361Z,82.90
2018-03-14T11:19:46.037Z,82.90
2018-03-14T11:22:13.846Z,82.80
2018-03-14T11:24:41.620Z,84.30
2018-03-14T11:27:09.225Z,83.80
2018-03-14T11:29:36.789Z,84.50
2018-03-14T11:32:04.369Z,84.00
2018-03-14T11:34:32.695Z,82.90
2018-03-14T11:37:00.284Z,82.70
2018-03-14T11:39:27.849Z,82.20
2018-03-14T11:41:55.471Z,81.20
2018-03-14T11:44:23.026Z,82.70
2018-03-14T11:46:50.614Z,80.70
2018-03-14T11:49:18.194Z,81.50
2018-03-14T11:51:45.800Z,81.10
2018-03-14T11:54:13.373Z,80.00
2018-03-14T11:56:41.245Z,80.90
2018-03-14T11:59:08.814Z,79.90
2018-03-14T12:01:36.374Z,82.20
2018-03-14T12:04:04.036Z,82.00
2018-03-14T12:06:31.593Z,82.10
2018-03-14T12:08:59.212Z,80.60
2018-03-14T12:11:27.548Z,79.20
2018-03-14T12:13:55.230Z,78.40
2018-03-14T12:16:22.820Z,78.90
2018-03-14T12:18:51.197Z,78.10
2018-03-14T12:21:19.513Z,78.70
2018-03-14T12:23:47.104Z,78.60
2018-03-14T12:26:14.812Z,79.60
2018-03-14T12:28:42.431Z,78.40
2018-03-14T12:31:09.985Z,79.10
2018-03-14T12:33:37.550Z,80.20
2018-03-14T12:36:05.124Z,79.50
2018-03-14T12:38:32.715Z,80.40
2018-03-14T12:41:00.245Z,80.30
2018-03-14T12:43:28.572Z,80.90
2018-03-14T12:45:56.129Z,80.80
2018-03-14T12:48:23.688Z,78.80
2018-03-14T12:50:51.257Z,78.40
2018-03-14T12:53:18.827Z,79.90
2018-03-14T12:55:46.399Z,78.10
2018-03-14T12:58:13.957Z,79.20
2018-03-14T13:00:41.535Z,78.20
2018-03-14T13:03:09.088Z,79.50
2018-03-14T13:05:36.653Z,78.70
2018-03-14T13:08:04.201Z,78.20
2018-03-14T13:10:33.298Z,77.50
2018-03-14T13:13:00.846Z,77.50
2018-03-14T13:15:28.424Z,77.30
2018-03-14T13:17:56.009Z,78.20
2018-03-14T13:20:24.340Z,77.90
2018-03-14T13:22:51.901Z,77.90
2018-03-14T13:25:19.497Z,76.80
2018-03-14T13:27:47.104Z,75.20
2018-03-14T13:30:14.665Z,76.00
2018-03-14T13:32:42.250Z,77.40
2018-03-14T13:35:09.837Z,77.50
2018-03-14T13:37:37.402Z,77.90
2018-03-14T13:40:05.793Z,76.80
2018-03-14T13:42:33.321Z,76.10
2018-03-14T13:45:00.898Z,76.40
2018-03-14T13:47:28.473Z,76.40
2018-03-14T13:49:56.051Z,76.40
2018-03-14T13:52:23.678Z,74.50
2018-03-14T13:54:51.247Z,76.80
2018-03-14T13:57:18.845Z,74.40
2018-03-14T13:59:46.465Z,74.70
2018-03-14T14:02:14.801Z,70.90
2018-03-14T14:04:42.469Z,70.90
2018-03-14T14:07:10.037Z,71.40
2018-03-14T14:09:37.631Z,70.20
2018-03-14T14:12:05.952Z,68.70
2018-03-14T14:14:33.545Z,68.70
2018-03-14T14:17:01.112Z,69.80
2018-03-14T14:19:28.676Z,69.80
2018-03-14T14:21:56.245Z,68.40
2018-03-14T14:24:24.611Z,68.90
2018-03-14T14:26:52.160Z,68.90
2018-03-14T14:29:19.726Z,67.10
2018-03-14T14:31:47.265Z,68.80
2018-03-14T14:34:14.849Z,67.20
2018-03-14T14:36:42.403Z,68.90
2018-03-14T14:39:09.949Z,67.70
2018-03-14T14:41:37.678Z,67.40
2018-03-14T14:44:05.160Z,67.00
2018-03-14T14:46:32.736Z,67.00
2018-03-14T14:49:00.300Z,68.80
2018-03-14T14:51:27.863Z,69.50
2018-03-14T14:53:55.431Z,68.40
2018-03-14T14:56:23.788Z,68.70
2018-03-14T14:58:51.341Z,68.80
2018-03-14T15:01:18.921Z,67.80
2018-03-14T15:03:46.484Z,68.20
2018-03-14T15:06:14.056Z,68.20
2018-03-14T15:08:41.603Z,67.90
2018-03-14T15:11:09.172Z,68.40
2018-03-14T15:13:36.784Z,68.10
2018-03-14T15:16:04.346Z,66.70
2018-03-14T15:18:31.929Z,65.70
2018-03-14T15:20:59.508Z,65.90
2018-03-14T15:23:27.238Z,65.80
2018-03-14T15:25:54.806Z,64.40
2018-03-14T15:28:22.373Z,67.70
2018-03-14T15:30:49.947Z,68.40
2018-03-14T15:33:17.575Z,68.60
2018-03-14T15:35:45.141Z,68.90
2018-03-14T15:38:12.713Z,69.20
2018-03-14T15:40:40.307Z,69.20
2018-03-14T15:43:07.829Z,69.00
2018-03-14T15:45:35.401Z,68.80
2018-03-14T15:48:02.970Z,68.80
2018-03-14T15:50:30.529Z,68.60
2018-03-14T15:52:58.119Z,69.10
2018-03-14T15:55:26.529Z,69.80
2018-03-14T15:57:54.105Z,69.80
2018-03-14T16:00:21.673Z,69.40
2018-03-14T16:02:49.248Z,68.80
2018-03-14T16:05:16.822Z,69.00
2018-03-14T16:07:44.401Z,70.30
2018-03-14T16:10:12.725Z,70.10
2018-03-14T16:12:40.279Z,69.90
2018-03-14T16:15:07.853Z,70.20
2018-03-14T16:17:35.438Z,70.80
2018-03-14T16:20:03.075Z,71.70
2018-03-14T16:22:31.362Z,72.80
2018-03-14T16:24:58.942Z,72.70
2018-03-14T16:27:26.492Z,72.30
2018-03-14T16:29:54.061Z,73.60
2018-03-14T16:32:21.605Z,73.30
2018-03-14T16:34:49.760Z,72.40
2018-03-14T16:37:17.297Z,73.30
2018-03-14T16:39:44.865Z,73.70
2018-03-14T16:42:12.425Z,73.80
2018-03-14T16:44:40.059Z,73.30
2018-03-14T16:47:07.596Z,73.30
2018-03-14T16:49:35.155Z,74.50
2018-03-14T16:52:02.714Z,75.10
2018-03-14T16:54:30.315Z,75.60
2018-03-14T16:56:58.002Z,74.60
2018-03-14T16:59:25.589Z,75.70
2018-03-14T17:01:53.173Z,76.00
2018-03-14T17:04:21.525Z,76.30
2018-03-14T17:06:49.173Z,76.30
2018-03-14T17:09:16.745Z,76.50
2018-03-14T17:11:44.303Z,77.40
2018-03-14T17:14:11.936Z,77.20
2018-03-14T17:16:39.514Z,77.40
2018-03-14T17:19:07.368Z,77.90
2018-03-14T17:21:34.983Z,78.70
2018-03-14T17:24:03.292Z,79.90
2018-03-14T17:26:31.124Z,79.30
2018-03-14T17:28:58.616Z,79.90
2018-03-14T17:31:26.217Z,80.40
2018-03-14T17:33:54.014Z,82.10
2018-03-14T17:36:22.407Z,83.40
2018-03-14T17:38:49.969Z,83.40
2018-03-14T17:41:18.338Z,83.60
2018-03-14T17:43:46.782Z,84.10
2018-03-14T17:46:14.490Z,84.00
2018-03-14T17:48:42.074Z,84.60
2018-03-14T17:51:09.683Z,84.90
2018-03-14T17:53:37.233Z,85.70
2018-03-14T17:56:04.862Z,85.10
2018-03-14T17:58:32.574Z,85.50
2018-03-14T18:01:00.181Z,85.50
2018-03-14T18:03:28.769Z,86.00
2018-03-14T18:05:57.000Z,85.70
2018-03-14T18:08:24.670Z,85.90
2018-03-14T18:10:54.262Z,85.90
2018-03-14T18:13:24.862Z,85.80
2018-03-14T18:15:52.450Z,86.00
2018-03-14T18:18:20.050Z,87.00
2018-03-14T18:20:47.668Z,87.10
2018-03-14T18:23:16.248Z,86.60
2018-03-14T18:25:43.833Z,87.70
2018-03-14T18:28:12.365Z,87.60
2018-03-14T18:30:40.733Z,87.60
2018-03-14T18:33:09.250Z,88.60
2018-03-14T18:35:36.826Z,88.80
2018-03-14T18:38:05.182Z,88.70
2018-03-14T18:40:32.803Z,88.70
2018-03-14T18:43:00.873Z,88.20
2018-03-14T18:45:28.454Z,88.40
2018-03-14T18:47:56.112Z,88.50
2018-03-14T18:50:23.691Z,88.00
2018-03-14T18:52:51.244Z,87.90
2018-03-14T18:55:18.841Z,87.90
2018-03-14T18:57:46.788Z,88.60
2018-03-14T19:00:14.373Z,89.00
2018-03-14T19:02:42.697Z,90.00
2018-03-14T19:05:10.273Z,89.30
2018-03-14T19:07:37.834Z,90.20
2018-03-14T19:10:06.227Z,90.30
2018-03-14T19:12:33.986Z,90.30
2018-03-14T19:15:01.580Z,90.10
2018-03-14T19:17:29.911Z,90.70
2018-03-14T19:19:59.553Z,90.70
2018-03-14T19:22:29.020Z,90.60
2018-03-14T19:24:57.468Z,90.50
2018-03-14T19:27:25.059Z,90.60
2018-03-14T19:29:52.630Z,90.60
2018-03-14T19:32:20.280Z,90.80
2018-03-14T19:34:47.917Z,90.90
2018-03-14T19:37:17.168Z,90.90
2018-03-14T19:39:44.748Z,90.90
2018-03-14T19:42:13.101Z,91.20
2018-03-14T19:44:40.705Z,91.20
2018-03-14T19:47:09.058Z,91.50
2018-03-14T19:49:36.605Z,91.40
2018-03-14T19:52:04.169Z,91.40
2018-03-14T19:54:31.760Z,91.60
2018-03-14T19:57:00.210Z,91.70
2018-03-14T19:59:27.824Z,91.90
2018-03-14T20:01:56.445Z,92.10
2018-03-14T20:04:24.027Z,92.20
2018-03-14T20:06:51.650Z,92.50
2018-03-14T20:09:20.073Z,92.40
2018-03-14T20:11:47.641Z,92.60
2018-03-14T20:14:16.011Z,92.50
2018-03-14T20:16:43.580Z,92.50
2018-03-14T20:19:11.981Z,92.30
2018-03-14T20:21:39.691Z,92.30
2018-03-14T20:24:07.327Z,92.60
2018-03-14T20:26:34.910Z,92.80
2018-03-14T20:29:03.805Z,92.80
2018-03-14T20:31:32.204Z,92.90
2018-03-14T20:33:59.778Z,93.50
2018-03-14T20:36:28.128Z,93.30
2018-03-14T20:38:55.737Z,93.20
2018-03-14T20:41:23.352Z,93.20
2018-03-14T20:43:50.970Z,93.50
2018-03-14T20:46:20.246Z,93.50
2018-03-14T20:48:47.873Z,93.60
2018-03-14T20:51:15.473Z,93.80
2018-03-14T20:53:43.850Z,93.80
2018-03-14T20:56:11.572Z,93.80
2018-03-14T20:58:39.879Z,94.10
2018-03-14T21:01:08.340Z,94.30
2018-03-14T21:03:35.927Z,94.20
2018-03-14T21:08:38.357Z,94.20
2018-03-14T21:11:05.975Z,94.30
2018-03-14T21:13:34.798Z,94.10
2018-03-14T21:16:06.407Z,94.20
2018-03-14T21:18:33.970Z,94.20
2018-03-14T21:21:01.558Z,94.50
2018-03-14T21:23:29.231Z,94.50
2018-03-14T21:25:58.059Z,94.60
2018-03-14T21:28:26.654Z,94.70
2018-03-14T21:30:54.211Z,94.70
2018-03-14T21:33:21.800Z,94.70
2018-03-14T21:35:50.816Z,94.50
2018-03-14T21:38:18.425Z,94.50
2018-03-14T21:40:45.963Z,94.50
2018-03-14T21:43:13.753Z,94.60
2018-03-14T21:45:41.387Z,94.60
2018-03-14T21:48:08.949Z,94.50
2018-03-14T21:50:38.185Z,94.50
2018-03-14T21:53:05.824Z,94.50
2018-03-14T21:55:39.435Z,94.40
2018-03-14T21:58:07.020Z,94.60
2018-03-14T22:00:35.522Z,94.30
2018-03-14T22:03:03.166Z,94.30
2018-03-14T22:05:31.799Z,94.50
2018-03-14T22:08:00.722Z,94.40
2018-03-14T22:10:28.298Z,94.30
2018-03-14T22:12:56.665Z,94.20
2018-03-14T22:15:25.086Z,94.20
2018-03-14T22:17:52.682Z,94.20
2018-03-14T22:20:20.273Z,94.40
2018-03-14T22:22:48.617Z,94.40
2018-03-14T22:25:16.350Z,94.40
2018-03-14T22:27:43.897Z,94.20
2018-03-14T22:30:12.250Z,94.10
2018-03-14T22:32:41.335Z,94.30
2018-03-14T22:35:09.726Z,94.30
2018-03-14T22:37:37.273Z,94.60
2018-03-14T22:40:04.841Z,94.40
2018-03-14T22:42:32.499Z,94.60
2018-03-14T22:45:00.086Z,94.70
2018-03-14T22:47:28.288Z,94.60
2018-03-14T22:49:55.842Z,94.60
2018-03-14T22:52:23.422Z,94.60
2018-03-14T22:54:50.966Z,94.60
2018-03-14T22:57:18.530Z,94.60
2018-03-14T22:59:46.098Z,94.70
2018-03-14T23:02:13.681Z,94.80
2018-03-14T23:04:41.246Z,95.00
2018-03-14T23:07:08.798Z,95.10
2018-03-14T23:09:36.347Z,95.20
2018-03-14T23:12:03.918Z,95.10
2018-03-14T23:14:31.474Z,94.90
2018-03-14T23:16:59.040Z,95.00
2018-03-14T23:19:26.597Z,95.00
2018-03-14T23:21:54.200Z,95.00
2018-03-14T23:24:21.763Z,95.10
2018-03-14T23:26:49.368Z,95.10
2018-03-14T23:29:16.932Z,95.30
2018-03-14T23:31:44.525Z,95.40
2018-03-14T23:34:12.953Z,95.50
2018-03-14T23:36:40.541Z,95.50
2018-03-14T23:39:08.105Z,95.20
2018-03-14T23:41:35.677Z,95.30
2018-03-14T23:44:03.240Z,95.40
2018-03-14T23:46:31.554Z,95.50
2018-03-14T23:48:59.139Z,95.50
2018-03-14T23:51:26.687Z,95.60
2018-03-14T23:53:54.249Z,95.40
2018-03-14T23:56:21.821Z,95.40
2018-03-14T23:58:49.994Z,95.70
